Aviation Digital Data Service (ADDS)

Output produced by METARs form (0324 UTC 23 June 2017)
found at http://aviationweather.gov/adds/metars/
 
KINT 222338Z 2300/2324 VRB05KT P6SM SCT040 BKN120 
     FM230600 23005KT P6SM -RA BKN015 OVC090 
     TEMPO 2309/2312 4SM -RA BR OVC008 
     FM231300 23012G18KT P6SM VCSH OVC090 
     FM231700 23013G20KT P6SM SCT040 BKN120